sensor_id;sensor_type;location;lat;lon;timestamp;pressure;altitude;pressure_sealevel;temperature;humidity
69402;BME280;56589;51.992;5.924;2023-04-01T00:02:09;98518.00;;;9.22;85.81
69402;BME280;56589;51.992;5.924;2023-04-01T00:04:35;98525.19;;;9.20;85.92
69402;BME280;56589;51.992;5.924;2023-04-01T00:07:01;98517.34;;;9.20;86.47
69402;BME280;56589;51.992;5.924;2023-04-01T00:09:27;98523.53;;;9.19;86.15
69402;BME280;56589;51.992;5.924;2023-04-01T00:11:55;98523.38;;;9.20;86.31
69402;BME280;56589;51.992;5.924;2023-04-01T00:14:21;98527.81;;;9.20;86.30
69402;BME280;56589;51.992;5.924;2023-04-01T00:16:47;98526.97;;;9.19;86.11
69402;BME280;56589;51.992;5.924;2023-04-01T00:19:13;98534.69;;;9.21;86.43
69402;BME280;56589;51.992;5.924;2023-04-01T00:21:38;98528.63;;;9.20;86.09
69402;BME280;56589;51.992;5.924;2023-04-01T00:24:04;98526.81;;;9.21;86.10
69402;BME280;56589;51.992;5.924;2023-04-01T00:26:30;98532.06;;;9.21;86.44
69402;BME280;56589;51.992;5.924;2023-04-01T00:28:59;98531.25;;;9.20;86.72
69402;BME280;56589;51.992;5.924;2023-04-01T00:31:25;98527.09;;;9.18;86.59
69402;BME280;56589;51.992;5.924;2023-04-01T00:33:51;98528.78;;;9.19;86.21
69402;BME280;56589;51.992;5.924;2023-04-01T00:36:19;98530.41;;;9.20;86.62
69402;BME280;56589;51.992;5.924;2023-04-01T00:38:46;98530.97;;;9.23;86.21
69402;BME280;56589;51.992;5.924;2023-04-01T00:41:14;98532.63;;;9.25;86.58
69402;BME280;56589;51.992;5.924;2023-04-01T00:43:41;98524.63;;;9.26;86.36
69402;BME280;56589;51.992;5.924;2023-04-01T00:46:10;98534.81;;;9.29;86.19
69402;BME280;56589;51.992;5.924;2023-04-01T00:48:39;98537.28;;;9.31;86.62
69402;BME280;56589;51.992;5.924;2023-04-01T00:51:11;98538.13;;;9.31;86.66
69402;BME280;56589;51.992;5.924;2023-04-01T00:53:43;98533.41;;;9.35;86.50
69402;BME280;56589;51.992;5.924;2023-04-01T00:56:15;98538.50;;;9.36;86.58
69402;BME280;56589;51.992;5.924;2023-04-01T00:58:45;98541.94;;;9.37;86.46
69402;BME280;56589;51.992;5.924;2023-04-01T01:01:17;98542.91;;;9.36;86.54
69402;BME280;56589;51.992;5.924;2023-04-01T01:03:44;98537.66;;;9.36;86.12
69402;BME280;56589;51.992;5.924;2023-04-01T01:06:26;98540.28;;;9.36;86.19
69402;BME280;56589;51.992;5.924;2023-04-01T01:09:25;98536.69;;;9.37;86.25
69402;BME280;56589;51.992;5.924;2023-04-01T01:12:05;98541.81;;;9.38;86.33
69402;BME280;56589;51.992;5.924;2023-04-01T01:14:44;98536.56;;;9.38;86.55
69402;BME280;56589;51.992;5.924;2023-04-01T01:17:26;98543.72;;;9.36;86.49
69402;BME280;56589;51.992;5.924;2023-04-01T01:20:30;98547.88;;;9.39;86.50
69402;BME280;56589;51.992;5.924;2023-04-01T01:23:39;98548.84;;;9.38;86.29
69402;BME280;56589;51.992;5.924;2023-04-01T01:26:40;98547.88;;;9.39;86.38
69402;BME280;56589;51.992;5.924;2023-04-01T01:29:48;98550.47;;;9.39;86.55
69402;BME280;56589;51.992;5.924;2023-04-01T01:32:38;98541.09;;;9.36;86.36
69402;BME280;56589;51.992;5.924;2023-04-01T01:35:28;98544.69;;;9.35;86.82
69402;BME280;56589;51.992;5.924;2023-04-01T01:38:00;98548.97;;;9.36;86.51
69402;BME280;56589;51.992;5.924;2023-04-01T01:40:36;98551.47;;;9.38;86.51
69402;BME280;56589;51.992;5.924;2023-04-01T01:43:09;98553.94;;;9.39;86.50
69402;BME280;56589;51.992;5.924;2023-04-01T01:45:43;98557.53;;;9.38;86.63
69402;BME280;56589;51.992;5.924;2023-04-01T01:48:14;98557.53;;;9.38;86.56
69402;BME280;56589;51.992;5.924;2023-04-01T01:50:45;98561.94;;;9.38;86.64
69402;BME280;56589;51.992;5.924;2023-04-01T01:53:13;98559.31;;;9.38;86.49
69402;BME280;56589;51.992;5.924;2023-04-01T01:55:41;98564.41;;;9.39;86.84
69402;BME280;56589;51.992;5.924;2023-04-01T01:58:13;98563.44;;;9.40;86.44
69402;BME280;56589;51.992;5.924;2023-04-01T02:00:48;98572.09;;;9.41;86.84
69402;BME280;56589;51.992;5.924;2023-04-01T02:03:17;98565.22;;;9.40;86.64
69402;BME280;56589;51.992;5.924;2023-04-01T02:05:48;98569.63;;;9.39;86.28
69402;BME280;56589;51.992;5.924;2023-04-01T02:08:18;98565.66;;;9.35;86.31
69402;BME280;56589;51.992;5.924;2023-04-01T02:10:53;98578.22;;;9.32;86.81
69402;BME280;56589;51.992;5.924;2023-04-01T02:13:29;98577.53;;;9.30;86.69
69402;BME280;56589;51.992;5.924;2023-04-01T02:16:05;98590.63;;;9.30;86.38
69402;BME280;56589;51.992;5.924;2023-04-01T02:18:38;98585.69;;;9.27;86.61
69402;BME280;56589;51.992;5.924;2023-04-01T02:21:07;98587.47;;;9.26;86.29
69402;BME280;56589;51.992;5.924;2023-04-01T02:23:36;98590.22;;;9.25;86.46
69402;BME280;56589;51.992;5.924;2023-04-01T02:26:05;98593.53;;;9.27;86.66
69402;BME280;56589;51.992;5.924;2023-04-01T02:28:33;98593.81;;;9.23;86.28
69402;BME280;56589;51.992;5.924;2023-04-01T02:31:03;98594.75;;;9.22;86.63
69402;BME280;56589;51.992;5.924;2023-04-01T02:33:30;98587.88;;;9.21;86.90
69402;BME280;56589;51.992;5.924;2023-04-01T02:35:57;98588.69;;;9.22;86.86
69402;BME280;56589;51.992;5.924;2023-04-01T02:38:27;98591.31;;;9.22;86.72
69402;BME280;56589;51.992;5.924;2023-04-01T02:40:58;98589.00;;;9.19;86.79
69402;BME280;56589;51.992;5.924;2023-04-01T02:43:25;98586.81;;;9.14;86.71
69402;BME280;56589;51.992;5.924;2023-04-01T02:45:51;98594.66;;;9.14;86.55
69402;BME280;56589;51.992;5.924;2023-04-01T02:48:17;98597.94;;;9.16;86.65
69402;BME280;56589;51.992;5.924;2023-04-01T02:50:43;98597.13;;;9.16;86.71
69402;BME280;56589;51.992;5.924;2023-04-01T02:53:08;98596.28;;;9.15;86.76
69402;BME280;56589;51.992;5.924;2023-04-01T02:55:37;98598.09;;;9.15;86.50
69402;BME280;56589;51.992;5.924;2023-04-01T02:58:03;98599.88;;;9.14;86.93
69402;BME280;56589;51.992;5.924;2023-04-01T03:00:29;98607.03;;;9.12;86.92
69402;BME280;56589;51.992;5.924;2023-04-01T03:02:55;98604.56;;;9.11;87.00
69402;BME280;56589;51.992;5.924;2023-04-01T03:05:21;98605.53;;;9.10;86.95
69402;BME280;56589;51.992;5.924;2023-04-01T03:07:48;98601.94;;;9.11;87.04
69402;BME280;56589;51.992;5.924;2023-04-01T03:10:14;98603.59;;;9.12;87.07
69402;BME280;56589;51.992;5.924;2023-04-01T03:12:42;98608.56;;;9.15;86.66
69402;BME280;56589;51.992;5.924;2023-04-01T03:15:10;98606.91;;;9.14;86.64
69402;BME280;56589;51.992;5.924;2023-04-01T03:17:37;98606.78;;;9.15;87.01
69402;BME280;56589;51.992;5.924;2023-04-01T03:20:03;98605.28;;;9.13;86.53
69402;BME280;56589;51.992;5.924;2023-04-01T03:22:30;98602.66;;;9.13;86.68
69402;BME280;56589;51.992;5.924;2023-04-01T03:24:55;98604.41;;;9.12;86.66
69402;BME280;56589;51.992;5.924;2023-04-01T03:27:21;98603.75;;;9.10;87.02
69402;BME280;56589;51.992;5.924;2023-04-01T03:29:50;98612.44;;;9.11;86.77
69402;BME280;56589;51.992;5.924;2023-04-01T03:32:15;98614.22;;;9.10;86.64
69402;BME280;56589;51.992;5.924;2023-04-01T03:34:41;98608.16;;;9.10;86.87
69402;BME280;56589;51.992;5.924;2023-04-01T03:37:07;98614.53;;;9.07;86.99
69402;BME280;56589;51.992;5.924;2023-04-01T03:39:33;98620.69;;;9.06;86.89
69402;BME280;56589;51.992;5.924;2023-04-01T03:41:59;98617.41;;;9.04;86.99
69402;BME280;56589;51.992;5.924;2023-04-01T03:44:24;98627.06;;;9.04;86.84
69402;BME280;56589;51.992;5.924;2023-04-01T03:46:53;98614.13;;;9.02;86.67
69402;BME280;56589;51.992;5.924;2023-04-01T03:49:19;98624.72;;;9.01;86.66
69402;BME280;56589;51.992;5.924;2023-04-01T03:51:44;98619.50;;;9.01;86.90
69402;BME280;56589;51.992;5.924;2023-04-01T03:54:10;98630.78;;;9.01;86.90
69402;BME280;56589;51.992;5.924;2023-04-01T03:56:36;98629.13;;;9.00;87.01
69402;BME280;56589;51.992;5.924;2023-04-01T03:59:04;98628.44;;;8.98;86.70
69402;BME280;56589;51.992;5.924;2023-04-01T04:01:31;98633.41;;;9.01;86.95
69402;BME280;56589;51.992;5.924;2023-04-01T04:04:00;98623.75;;;9.02;86.71
69402;BME280;56589;51.992;5.924;2023-04-01T04:06:26;98629.97;;;9.01;86.87
69402;BME280;56589;51.992;5.924;2023-04-01T04:08:53;98628.44;;;8.98;87.09
69402;BME280;56589;51.992;5.924;2023-04-01T04:11:19;98631.22;;;8.96;86.66
69402;BME280;56589;51.992;5.924;2023-04-01T04:13:47;98636.59;;;8.95;86.86
69402;BME280;56589;51.992;5.924;2023-04-01T04:16:13;98631.34;;;8.95;86.90
69402;BME280;56589;51.992;5.924;2023-04-01T04:18:40;98640.03;;;8.95;86.90
69402;BME280;56589;51.992;5.924;2023-04-01T04:21:11;98642.75;;;8.94;87.07
69402;BME280;56589;51.992;5.924;2023-04-01T04:23:38;98636.72;;;8.93;87.23
69402;BME280;56589;51.992;5.924;2023-04-01T04:26:06;98642.91;;;8.92;86.99
69402;BME280;56589;51.992;5.924;2023-04-01T04:28:34;98643.88;;;8.91;87.26
69402;BME280;56589;51.992;5.924;2023-04-01T04:31:00;98641.41;;;8.90;87.03
69402;BME280;56589;51.992;5.924;2023-04-01T04:33:27;98647.63;;;8.89;87.18
69402;BME280;56589;51.992;5.924;2023-04-01T04:35:55;98642.66;;;8.86;87.16
69402;BME280;56589;51.992;5.924;2023-04-01T04:38:25;98651.31;;;8.86;87.23
69402;BME280;56589;51.992;5.924;2023-04-01T04:40:52;98652.16;;;8.87;87.26
69402;BME280;56589;51.992;5.924;2023-04-01T04:43:18;98651.31;;;8.86;87.20
69402;BME280;56589;51.992;5.924;2023-04-01T04:45:45;98648.56;;;8.88;87.09
69402;BME280;56589;51.992;5.924;2023-04-01T04:48:12;98645.94;;;8.88;87.03
69402;BME280;56589;51.992;5.924;2023-04-01T04:50:40;98657.25;;;8.88;87.17
69402;BME280;56589;51.992;5.924;2023-04-01T04:53:06;98655.59;;;8.87;87.02
69402;BME280;56589;51.992;5.924;2023-04-01T04:55:37;98655.72;;;8.86;87.47
69402;BME280;56589;51.992;5.924;2023-04-01T04:58:02;98657.53;;;8.85;87.28
69402;BME280;56589;51.992;5.924;2023-04-01T05:00:28;98663.72;;;8.84;87.37
69402;BME280;56589;51.992;5.924;2023-04-01T05:02:54;98663.59;;;8.86;87.60
69402;BME280;56589;51.992;5.924;2023-04-01T05:05:20;98664.25;;;8.88;87.62
69402;BME280;56589;51.992;5.924;2023-04-01T05:07:46;98671.16;;;8.89;87.23
69402;BME280;56589;51.992;5.924;2023-04-01T05:10:11;98672.00;;;8.89;87.24
69402;BME280;56589;51.992;5.924;2023-04-01T05:12:40;98676.41;;;8.89;87.53
69402;BME280;56589;51.992;5.924;2023-04-01T05:15:06;98678.19;;;8.88;87.38
69402;BME280;56589;51.992;5.924;2023-04-01T05:17:34;98678.88;;;8.90;87.38
69402;BME280;56589;51.992;5.924;2023-04-01T05:20:00;98681.34;;;8.92;87.73
69402;BME280;56589;51.992;5.924;2023-04-01T05:22:26;98685.34;;;8.96;87.52
69402;BME280;56589;51.992;5.924;2023-04-01T05:24:52;98694.03;;;8.96;87.55
69402;BME280;56589;51.992;5.924;2023-04-01T05:27:17;98692.38;;;8.95;87.65
69402;BME280;56589;51.992;5.924;2023-04-01T05:29:46;98691.09;;;9.00;87.64
69402;BME280;56589;51.992;5.924;2023-04-01T05:32:12;98700.63;;;9.01;87.40
69402;BME280;56589;51.992;5.924;2023-04-01T05:34:37;98697.06;;;9.02;87.45
69402;BME280;56589;51.992;5.924;2023-04-01T05:37:03;98705.72;;;9.02;87.72
69402;BME280;56589;51.992;5.924;2023-04-01T05:39:29;98705.16;;;8.99;87.83
69402;BME280;56589;51.992;5.924;2023-04-01T05:41:55;98703.53;;;8.98;88.01
69402;BME280;56589;51.992;5.924;2023-04-01T05:44:21;98712.19;;;8.98;87.98
69402;BME280;56589;51.992;5.924;2023-04-01T05:46:49;98712.03;;;9.00;87.66
69402;BME280;56589;51.992;5.924;2023-04-01T05:49:15;98712.88;;;9.00;87.74
69402;BME280;56589;51.992;5.924;2023-04-01T05:51:41;98721.69;;;8.99;87.51
69402;BME280;56589;51.992;5.924;2023-04-01T05:54:07;98725.97;;;9.00;87.99
69402;BME280;56589;51.992;5.924;2023-04-01T05:56:32;98732.06;;;9.01;87.65
69402;BME280;56589;51.992;5.924;2023-04-01T05:58:58;98733.69;;;9.02;87.86
69402;BME280;56589;51.992;5.924;2023-04-01T06:01:24;98733.69;;;9.02;87.59
69402;BME280;56589;51.992;5.924;2023-04-01T06:03:52;98737.97;;;9.03;87.84
69402;BME280;56589;51.992;5.924;2023-04-01T06:06:23;98745.66;;;9.04;87.89
69402;BME280;56589;51.992;5.924;2023-04-01T06:08:51;98744.69;;;9.05;87.56
69402;BME280;56589;51.992;5.924;2023-04-01T06:11:26;98748.28;;;9.04;87.40
69402;BME280;56589;51.992;5.924;2023-04-01T06:14:23;98751.03;;;9.03;87.37
69402;BME280;56589;51.992;5.924;2023-04-01T06:17:08;98755.59;;;9.01;87.72
69402;BME280;56589;51.992;5.924;2023-04-01T06:20:00;98767.72;;;9.02;87.76
69402;BME280;56589;51.992;5.924;2023-04-01T06:22:50;98767.44;;;9.05;87.90
69402;BME280;56589;51.992;5.924;2023-04-01T06:25:53;98771.84;;;9.04;87.48
69402;BME280;56589;51.992;5.924;2023-04-01T06:28:56;98777.06;;;9.04;87.45
69402;BME280;56589;51.992;5.924;2023-04-01T06:31:55;98777.75;;;9.06;87.82
69402;BME280;56589;51.992;5.924;2023-04-01T06:35:04;98793.47;;;9.06;87.62
69402;BME280;56589;51.992;5.924;2023-04-01T06:44:42;98808.06;;;9.18;88.01
69402;BME280;56589;51.992;5.924;2023-04-01T06:47:26;98802.31;;;9.25;87.64
69402;BME280;56589;51.992;5.924;2023-04-01T06:50:08;98808.69;;;9.32;87.52
69402;BME280;56589;51.992;5.924;2023-04-01T06:52:50;98811.97;;;9.34;87.58
69402;BME280;56589;51.992;5.924;2023-04-01T06:55:27;98819.53;;;9.37;87.31
69402;BME280;56589;51.992;5.924;2023-04-01T06:58:03;98822.03;;;9.38;87.09
69402;BME280;56589;51.992;5.924;2023-04-01T07:00:34;98826.16;;;9.41;86.90
69402;BME280;56589;51.992;5.924;2023-04-01T07:03:08;98827.97;;;9.40;87.06
69402;BME280;56589;51.992;5.924;2023-04-01T07:05:44;98829.06;;;9.38;87.13
69402;BME280;56589;51.992;5.924;2023-04-01T07:08:14;98836.94;;;9.38;87.33
69402;BME280;56589;51.992;5.924;2023-04-01T07:10:46;98832.38;;;9.40;87.11
69402;BME280;56589;51.992;5.924;2023-04-01T07:13:20;98844.50;;;9.41;87.01
69402;BME280;56589;51.992;5.924;2023-04-01T07:16:03;98844.34;;;9.42;87.53
69402;BME280;56589;51.992;5.924;2023-04-01T07:18:41;98848.66;;;9.43;87.05
69402;BME280;56589;51.992;5.924;2023-04-01T07:21:22;98842.44;;;9.44;87.55
69402;BME280;56589;51.992;5.924;2023-04-01T07:23:54;98852.78;;;9.46;87.40
69402;BME280;56589;51.992;5.924;2023-04-01T07:26:25;98864.91;;;9.47;87.75
69402;BME280;56589;51.992;5.924;2023-04-01T07:28:51;98856.91;;;9.48;87.63
69402;BME280;56589;51.992;5.924;2023-04-01T07:31:33;98866.00;;;9.54;87.61
69402;BME280;56589;51.992;5.924;2023-04-01T07:34:23;98868.19;;;9.59;87.80
69402;BME280;56589;51.992;5.924;2023-04-01T07:36:59;98874.00;;;9.62;87.55
69402;BME280;56589;51.992;5.924;2023-04-01T07:39:38;98881.00;;;9.62;87.85
69402;BME280;56589;51.992;5.924;2023-04-01T07:42:20;98878.13;;;9.65;88.00
69402;BME280;56589;51.992;5.924;2023-04-01T07:44:59;98883.22;;;9.66;88.00
69402;BME280;56589;51.992;5.924;2023-04-01T07:47:43;98895.25;;;9.69;88.41
69402;BME280;56589;51.992;5.924;2023-04-01T07:50:21;98888.31;;;9.77;88.19
69402;BME280;56589;51.992;5.924;2023-04-01T07:53:01;98896.03;;;9.89;88.32
69402;BME280;56589;51.992;5.924;2023-04-01T07:55:39;98896.56;;;10.02;88.55
69402;BME280;56589;51.992;5.924;2023-04-01T07:58:15;98902.75;;;10.11;88.19
69402;BME280;56589;51.992;5.924;2023-04-01T08:00:52;98907.03;;;10.12;87.72
69402;BME280;56589;51.992;5.924;2023-04-01T08:03:36;98910.34;;;10.14;87.45
69402;BME280;56589;51.992;5.924;2023-04-01T08:06:15;98920.00;;;10.13;87.49
69402;BME280;56589;51.992;5.924;2023-04-01T08:08:56;98912.56;;;10.18;87.95
69402;BME280;56589;51.992;5.924;2023-04-01T08:11:39;98924.94;;;10.26;88.02
69402;BME280;56589;51.992;5.924;2023-04-01T08:14:22;98921.91;;;10.30;87.89
69402;BME280;56589;51.992;5.924;2023-04-01T08:17:00;98934.31;;;10.38;87.74
69402;BME280;56589;51.992;5.924;2023-04-01T08:19:41;98935.13;;;10.39;87.46
69402;BME280;56589;51.992;5.924;2023-04-01T08:22:23;98939.56;;;10.38;87.53
69402;BME280;56589;51.992;5.924;2023-04-01T08:25:13;98944.66;;;10.40;87.44
69402;BME280;56589;51.992;5.924;2023-04-01T08:27:46;98945.63;;;10.39;87.50
69402;BME280;56589;51.992;5.924;2023-04-01T08:30:19;98950.72;;;10.40;87.45
69402;BME280;56589;51.992;5.924;2023-04-01T08:32:53;98960.53;;;10.38;87.24
69402;BME280;56589;51.992;5.924;2023-04-01T08:35:31;98955.28;;;10.38;87.45
69402;BME280;56589;51.992;5.924;2023-04-01T08:38:06;98962.03;;;10.41;87.80
69402;BME280;56589;51.992;5.924;2023-04-01T08:43:50;98965.63;;;10.49;87.22
69402;BME280;56589;51.992;5.924;2023-04-01T08:46:49;98978.31;;;10.54;88.01
69402;BME280;56589;51.992;5.924;2023-04-01T08:49:42;98965.47;;;10.51;87.49
69402;BME280;56589;51.992;5.924;2023-04-01T08:52:29;98974.16;;;10.51;87.67
69402;BME280;56589;51.992;5.924;2023-04-01T08:55:37;98976.94;;;10.50;87.57
69402;BME280;56589;51.992;5.924;2023-04-01T08:58:37;98984.81;;;10.40;87.45
69402;BME280;56589;51.992;5.924;2023-04-01T09:01:32;98989.66;;;10.35;87.26
69402;BME280;56589;51.992;5.924;2023-04-01T09:04:21;98991.34;;;10.36;87.28
69402;BME280;56589;51.992;5.924;2023-04-01T09:06:58;98992.84;;;10.39;87.84
69402;BME280;56589;51.992;5.924;2023-04-01T09:09:56;98997.13;;;10.40;87.40
69402;BME280;56589;51.992;5.924;2023-04-01T09:13:03;99010.78;;;10.34;86.99
69402;BME280;56589;51.992;5.924;2023-04-01T09:16:12;99005.84;;;10.30;87.63
69402;BME280;56589;51.992;5.924;2023-04-01T09:19:23;99004.72;;;10.33;88.11
69402;BME280;56589;51.992;5.924;2023-04-01T09:25:31;99015.91;;;10.45;88.33
69402;BME280;56589;51.992;5.924;2023-04-01T09:28:18;99020.16;;;10.55;88.09
69402;BME280;56589;51.992;5.924;2023-04-01T09:34:04;99032.56;;;10.63;87.90
69402;BME280;56589;51.992;5.924;2023-04-01T09:36:45;99036.69;;;10.66;87.77
69402;BME280;56589;51.992;5.924;2023-04-01T09:39:35;99037.41;;;10.68;87.58
69402;BME280;56589;51.992;5.924;2023-04-01T09:42:20;99043.19;;;10.71;86.98
69402;BME280;56589;51.992;5.924;2023-04-01T09:45:20;99053.97;;;10.68;86.86
69402;BME280;56589;51.992;5.924;2023-04-01T09:48:05;99051.91;;;10.62;86.67
69402;BME280;56589;51.992;5.924;2023-04-01T09:50:47;99054.44;;;10.54;87.06
69402;BME280;56589;51.992;5.924;2023-04-01T09:53:36;99055.66;;;10.50;86.89
69402;BME280;56589;51.992;5.924;2023-04-01T09:56:42;99060.22;;;10.38;86.77
69402;BME280;56589;51.992;5.924;2023-04-01T09:59:43;99068.22;;;10.27;87.14
69402;BME280;56589;51.992;5.924;2023-04-01T10:09:28;99080.22;;;10.10;87.38
69402;BME280;56589;51.992;5.924;2023-04-01T10:12:50;99083.16;;;10.07;87.67
69402;BME280;56589;51.992;5.924;2023-04-01T10:16:11;99082.72;;;10.02;87.34
69402;BME280;56589;51.992;5.924;2023-04-01T10:19:08;99085.50;;;10.00;88.04
69402;BME280;56589;51.992;5.924;2023-04-01T10:22:09;99097.22;;;10.06;87.90
69402;BME280;56589;51.992;5.924;2023-04-01T10:28:14;99099.19;;;10.23;88.28
69402;BME280;56589;51.992;5.924;2023-04-01T10:31:26;99105.38;;;10.32;88.06
69402;BME280;56589;51.992;5.924;2023-04-01T10:37:34;99107.47;;;10.48;87.85
69402;BME280;56589;51.992;5.924;2023-04-01T10:40:36;99112.84;;;10.56;87.91
69402;BME280;56589;51.992;5.924;2023-04-01T10:43:34;99109.50;;;10.73;87.78
69402;BME280;56589;51.992;5.924;2023-04-01T10:46:38;99107.56;;;10.95;88.05
69402;BME280;56589;51.992;5.924;2023-04-01T10:49:53;99102.25;;;11.14;87.98
69402;BME280;56589;51.992;5.924;2023-04-01T10:56:36;99118.59;;;11.45;87.66
69402;BME280;56589;51.992;5.924;2023-04-01T10:59:53;99119.56;;;11.44;86.43
69402;BME280;56589;51.992;5.924;2023-04-01T11:03:18;99123.47;;;11.40;86.35
69402;BME280;56589;51.992;5.924;2023-04-01T11:06:42;99121.13;;;11.37;86.59
69402;BME280;56589;51.992;5.924;2023-04-01T11:09:50;99128.91;;;11.29;86.75
69402;BME280;56589;51.992;5.924;2023-04-01T11:13:11;99126.28;;;11.29;86.40
69402;BME280;56589;51.992;5.924;2023-04-01T11:16:23;99127.50;;;11.34;86.86
69402;BME280;56589;51.992;5.924;2023-04-01T11:19:53;99139.50;;;11.37;86.50
69402;BME280;56589;51.992;5.924;2023-04-01T11:23:08;99131.53;;;11.29;86.01
69402;BME280;56589;51.992;5.924;2023-04-01T11:26:02;99144.41;;;11.13;85.78
69402;BME280;56589;51.992;5.924;2023-04-01T11:31:53;99143.63;;;10.64;85.24
69402;BME280;56589;51.992;5.924;2023-04-01T11:34:48;99151.38;;;10.55;85.66
69402;BME280;56589;51.992;5.924;2023-04-01T11:37:32;99153.97;;;10.46;85.42
69402;BME280;56589;51.992;5.924;2023-04-01T11:40:15;99153.84;;;10.38;86.03
69402;BME280;56589;51.992;5.924;2023-04-01T11:42:52;99153.16;;;10.36;86.31
69402;BME280;56589;51.992;5.924;2023-04-01T11:45:34;99155.06;;;10.34;86.59
69402;BME280;56589;51.992;5.924;2023-04-01T11:48:23;99159.50;;;10.33;86.88
69402;BME280;56589;51.992;5.924;2023-04-01T11:51:20;99165.44;;;10.25;87.03
69402;BME280;56589;51.992;5.924;2023-04-01T11:54:05;99173.84;;;10.19;87.24
69402;BME280;56589;51.992;5.924;2023-04-01T11:56:58;99177.69;;;10.15;87.40
69402;BME280;56589;51.992;5.924;2023-04-01T12:02:53;99196.88;;;10.06;87.37
69402;BME280;56589;51.992;5.924;2023-04-01T12:05:42;99191.34;;;9.99;88.09
69402;BME280;56589;51.992;5.924;2023-04-01T12:08:24;99197.50;;;9.98;88.47
69402;BME280;56589;51.992;5.924;2023-04-01T12:11:09;99199.59;;;9.95;88.18
69402;BME280;56589;51.992;5.924;2023-04-01T12:13:49;99205.66;;;9.95;88.47
69402;BME280;56589;51.992;5.924;2023-04-01T12:16:42;99206.50;;;9.96;88.45
69402;BME280;56589;51.992;5.924;2023-04-01T12:19:23;99209.38;;;9.93;88.48
69402;BME280;56589;51.992;5.924;2023-04-01T12:22:22;99211.69;;;9.86;88.34
69402;BME280;56589;51.992;5.924;2023-04-01T12:25:03;99222.31;;;9.85;88.51
69402;BME280;56589;51.992;5.924;2023-04-01T12:27:47;99219.00;;;9.83;88.45
69402;BME280;56589;51.992;5.924;2023-04-01T12:30:42;99229.34;;;9.84;88.82
69402;BME280;56589;51.992;5.924;2023-04-01T12:33:37;99232.66;;;9.86;88.99
69402;BME280;56589;51.992;5.924;2023-04-01T12:36:30;99241.69;;;9.93;89.23
69402;BME280;56589;51.992;5.924;2023-04-01T12:39:44;99239.34;;;10.00;89.51
69402;BME280;56589;51.992;5.924;2023-04-01T12:42:40;99239.66;;;10.07;89.23
69402;BME280;56589;51.992;5.924;2023-04-01T12:45:31;99249.75;;;10.11;89.62
69402;BME280;56589;51.992;5.924;2023-04-01T12:48:19;99252.53;;;10.19;89.72
69402;BME280;56589;51.992;5.924;2023-04-01T12:51:20;99262.63;;;10.24;89.56
69402;BME280;56589;51.992;5.924;2023-04-01T12:57:28;99271.47;;;10.33;89.65
69402;BME280;56589;51.992;5.924;2023-04-01T13:00:27;99265.97;;;10.36;89.37
69402;BME280;56589;51.992;5.924;2023-04-01T13:03:16;99273.69;;;10.37;89.09
69402;BME280;56589;51.992;5.924;2023-04-01T13:06:24;99281.88;;;10.44;89.17
69402;BME280;56589;51.992;5.924;2023-04-01T13:09:12;99284.09;;;10.48;89.59
69402;BME280;56589;51.992;5.924;2023-04-01T13:12:02;99293.91;;;10.56;89.56
69402;BME280;56589;51.992;5.924;2023-04-01T13:15:10;99287.84;;;10.55;88.86
69402;BME280;56589;51.992;5.924;2023-04-01T13:17:52;99292.94;;;10.57;88.94
69402;BME280;56589;51.992;5.924;2023-04-01T13:20:33;99302.75;;;10.65;89.65
69402;BME280;56589;51.992;5.924;2023-04-01T13:23:18;99307.06;;;10.75;89.67
69402;BME280;56589;51.992;5.924;2023-04-01T13:26:06;99305.34;;;10.86;89.51
69402;BME280;56589;51.992;5.924;2023-04-01T13:28:48;99314.03;;;10.96;89.27
69402;BME280;56589;51.992;5.924;2023-04-01T13:31:30;99320.38;;;11.03;89.05
69402;BME280;56589;51.992;5.924;2023-04-01T13:34:31;99322.91;;;11.04;89.08
69402;BME280;56589;51.992;5.924;2023-04-01T13:37:15;99331.03;;;11.01;88.64
69402;BME280;56589;51.992;5.924;2023-04-01T13:40:12;99330.63;;;10.96;88.31
69402;BME280;56589;51.992;5.924;2023-04-01T13:42:53;99339.31;;;10.87;88.22
69402;BME280;56589;51.992;5.924;2023-04-01T13:45:31;99336.91;;;10.74;88.25
69402;BME280;56589;51.992;5.924;2023-04-01T13:54:44;99343.53;;;10.28;88.17
69402;BME280;56589;51.992;5.924;2023-04-01T13:57:48;99349.28;;;10.22;88.33
69402;BME280;56589;51.992;5.924;2023-04-01T14:00:48;99354.97;;;10.18;88.13
69402;BME280;56589;51.992;5.924;2023-04-01T14:03:27;99354.81;;;10.19;88.66
69402;BME280;56589;51.992;5.924;2023-04-01T14:06:30;99364.34;;;10.20;88.75
69402;BME280;56589;51.992;5.924;2023-04-01T14:09:29;99364.34;;;10.20;88.53
69402;BME280;56589;51.992;5.924;2023-04-01T14:12:15;99370.28;;;10.22;88.83
69402;BME280;56589;51.992;5.924;2023-04-01T14:15:07;99380.25;;;10.28;89.44
69402;BME280;56589;51.992;5.924;2023-04-01T14:17:52;99378.78;;;10.36;89.25
69402;BME280;56589;51.992;5.924;2023-04-01T14:20:38;99384.34;;;10.42;89.75
69402;BME280;56589;51.992;5.924;2023-04-01T14:27:00;99394.72;;;10.53;89.12
69402;BME280;56589;51.992;5.924;2023-04-01T14:29:54;99394.03;;;10.51;89.20
69402;BME280;56589;51.992;5.924;2023-04-01T14:32:37;99404.53;;;10.51;88.83
69402;BME280;56589;51.992;5.924;2023-04-01T14:35:25;99409.09;;;10.49;89.26
69402;BME280;56589;51.992;5.924;2023-04-01T14:38:11;99405.88;;;10.46;89.44
69402;BME280;56589;51.992;5.924;2023-04-01T14:40:56;99412.09;;;10.45;89.05
69402;BME280;56589;51.992;5.924;2023-04-01T14:43:47;99414.84;;;10.43;89.11
69402;BME280;56589;51.992;5.924;2023-04-01T14:49:46;99417.34;;;10.45;89.56
69402;BME280;56589;51.992;5.924;2023-04-01T14:52:16;99422.22;;;10.49;89.08
69402;BME280;56589;51.992;5.924;2023-04-01T14:54:50;99424.56;;;10.52;88.85
69402;BME280;56589;51.992;5.924;2023-04-01T14:57:24;99430.91;;;10.50;88.39
69402;BME280;56589;51.992;5.924;2023-04-01T14:59:59;99440.50;;;10.40;87.86
69402;BME280;56589;51.992;5.924;2023-04-01T15:02:45;99439.97;;;10.36;88.40
69402;BME280;56589;51.992;5.924;2023-04-01T15:05:29;99447.69;;;10.38;88.35
69402;BME280;56589;51.992;5.924;2023-04-01T15:08:14;99451.53;;;10.34;88.41
69402;BME280;56589;51.992;5.924;2023-04-01T15:10:56;99451.38;;;10.35;88.43
69402;BME280;56589;51.992;5.924;2023-04-01T15:27:32;99482.81;;;9.72;91.70